Time;durP1;ratioP1;P1;durP2;ratioP2;P2;SDS_P1;SDS_P2;PMS_P1;PMS_P2;Temp;Humidity;BMP_temperature;BMP_pressure;BME280_temperature;BME280_humidity;BME280_pressure;Samples;Min_cycle;Max_cycle;Signal;HPM_P1;HPM_P2
2021/01/30 09:45:52;;;;;;;7.13;2.40;;;11.70;59.40;;;;;;6187736;28;20031;-77
2021/01/30 09:48:54;;;;;;;11.80;2.20;;;11.60;59.60;;;;;;6181819;28;20488;-77
2021/01/30 09:51:57;;;;;;;7.57;2.83;;;11.50;59.80;;;;;;6188211;28;20046;-76
2021/01/30 09:55:07;;;;;;;8.40;2.67;;;11.50;60.00;;;;;;6184631;28;20112;-76
2021/01/30 09:58:12;;;;;;;6.43;2.60;;;11.60;60.20;;;;;;6191134;28;20149;-77
2021/01/30 10:01:19;;;;;;;14.18;3.88;;;11.50;60.30;;;;;;6186647;28;20038;-78
2021/01/30 10:04:22;;;;;;;13.18;4.78;;;11.50;60.40;;;;;;6159373;28;20038;-76
2021/01/30 10:07:26;;;;;;;6.32;2.50;;;11.50;60.50;;;;;;6176378;28;20023;-76
2021/01/30 10:10:31;;;;;;;9.63;2.80;;;11.50;60.60;;;;;;6185677;28;20038;-77
2021/01/30 10:13:34;;;;;;;27.75;5.47;;;11.40;60.70;;;;;;6189240;28;20038;-77
2021/01/30 10:16:35;;;;;;;19.10;7.10;;;11.40;60.90;;;;;;6189420;28;20104;-77
2021/01/30 10:19:38;;;;;;;13.38;5.60;;;11.50;61.10;;;;;;6180935;28;20042;-77
2021/01/30 10:22:48;;;;;;;11.38;3.42;;;11.60;61.10;;;;;;6184569;28;20393;-77
2021/01/30 10:25:49;;;;;;;20.13;3.67;;;11.70;60.90;;;;;;6189747;28;20038;-76
2021/01/30 10:29:04;;;;;;;15.55;3.30;;;11.80;60.70;;;;;;6189279;28;20045;-77
2021/01/30 10:32:22;;;;;;;5.10;2.17;;;11.90;60.50;;;;;;6196835;28;20449;-76
2021/01/30 10:35:35;;;;;;;5.63;2.20;;;12.00;60.40;;;;;;6190267;28;20461;-77
2021/01/30 10:38:36;;;;;;;6.80;2.55;;;12.00;60.10;;;;;;6196980;28;20089;-77
2021/01/30 10:41:41;;;;;;;13.80;2.80;;;12.00;60.10;;;;;;6190356;28;20042;-75
2021/01/30 10:44:47;;;;;;;29.00;11.00;;;12.00;60.10;;;;;;6187658;28;20108;-76
2021/01/30 10:48:03;;;;;;;12.30;4.18;;;12.10;60.40;;;;;;6186342;28;20081;-77
2021/01/30 10:51:32;;;;;;;12.35;3.50;;;12.10;60.30;;;;;;6190512;28;20035;-77
2021/01/30 10:54:33;;;;;;;10.55;2.83;;;12.10;60.30;;;;;;6190905;28;20043;-77
2021/01/30 10:57:34;;;;;;;11.75;2.45;;;12.10;60.40;;;;;;6183897;28;20034;-77
2021/01/30 11:00:35;;;;;;;6.63;2.53;;;12.10;60.40;;;;;;6193164;28;20114;-77
2021/01/30 11:03:58;;;;;;;11.32;2.90;;;12.20;61.40;;;;;;6169917;28;20117;-77
2021/01/30 11:07:00;;;;;;;16.85;4.03;;;12.20;60.60;;;;;;6206279;28;20367;-77
2021/01/30 11:10:01;;;;;;;31.95;11.68;;;12.30;60.50;;;;;;6178370;28;20046;-79
2021/01/30 11:13:19;;;;;;;62.30;23.63;;;12.40;60.60;;;;;;6185347;28;20054;-78
2021/01/30 11:16:40;;;;;;;46.47;14.98;;;12.40;60.40;;;;;;6177069;28;20070;-79
2021/01/30 11:19:42;;;;;;;57.22;20.38;;;12.50;60.40;;;;;;6186044;28;20456;-78
2021/01/30 11:22:51;;;;;;;23.15;6.32;;;12.50;60.30;;;;;;6155398;28;20049;-78
2021/01/30 11:25:51;;;;;;;19.35;4.18;;;12.30;60.20;;;;;;6183189;28;20034;-78
2021/01/30 11:28:54;;;;;;;13.02;4.63;;;12.30;60.60;;;;;;6188798;28;20309;-77
2021/01/30 11:31:57;;;;;;;11.77;3.42;;;12.20;60.90;;;;;;6187950;28;20059;-76
2021/01/30 11:56:28;;;;;;;11.63;4.50;;;11.90;62.90;;;;;;6187393;28;20034;-80
2021/01/30 11:59:29;;;;;;;18.23;6.70;;;12.00;63.20;;;;;;6194720;28;20065;-80
2021/01/30 12:02:37;;;;;;;16.90;6.15;;;12.00;63.10;;;;;;6159956;28;20054;-77
2021/01/30 12:05:38;;;;;;;46.53;17.17;;;12.00;62.90;;;;;;6186053;28;20042;-77
2021/01/30 12:08:39;;;;;;;42.05;12.15;;;12.10;62.80;;;;;;6171924;28;20464;-77
2021/01/30 12:11:40;;;;;;;8.65;3.65;;;12.10;62.70;;;;;;6170147;28;20070;-77
2021/01/30 12:14:41;;;;;;;16.70;5.18;;;12.10;62.60;;;;;;6186944;28;20399;-77
2021/01/30 12:17:47;;;;;;;17.52;3.65;;;12.20;62.50;;;;;;6170971;28;20058;-77
2021/01/30 12:20:53;;;;;;;10.85;4.15;;;12.20;62.40;;;;;;6153421;28;20038;-76
2021/01/30 12:23:53;;;;;;;8.07;3.45;;;12.30;62.40;;;;;;6170976;28;20444;-77
2021/01/30 12:26:54;;;;;;;9.38;3.15;;;12.30;62.50;;;;;;6150568;28;20046;-78
2021/01/30 12:29:55;;;;;;;15.18;3.15;;;12.30;62.60;;;;;;6218205;28;20033;-77
2021/01/30 12:32:57;;;;;;;14.43;3.22;;;12.20;62.60;;;;;;6203760;28;20038;-76
2021/01/30 12:35:58;;;;;;;6.45;2.30;;;12.20;62.90;;;;;;6203921;28;20112;-77
2021/01/30 12:38:59;;;;;;;8.07;2.90;;;12.20;63.00;;;;;;6206103;28;20423;-78
2021/01/30 12:42:00;;;;;;;7.78;2.75;;;12.20;63.10;;;;;;6193704;28;20045;-77
2021/01/30 12:45:01;;;;;;;11.50;2.75;;;12.20;63.30;;;;;;6186308;28;20068;-76
2021/01/30 12:48:03;;;;;;;9.27;2.70;;;12.10;63.20;;;;;;6209614;28;20484;-80
2021/01/30 12:51:04;;;;;;;7.97;2.80;;;12.10;63.50;;;;;;6182467;28;20092;-81
2021/01/30 12:54:06;;;;;;;10.15;3.10;;;12.10;63.70;;;;;;6212067;28;20041;-76
2021/01/30 12:57:07;;;;;;;15.85;4.07;;;12.10;63.70;;;;;;6190856;28;20058;-80
2021/01/30 13:00:14;;;;;;;10.82;3.30;;;12.10;63.90;;;;;;6202066;28;20053;-80
2021/01/30 13:03:16;;;;;;;11.70;3.95;;;12.20;64.00;;;;;;6219308;28;20415;-80
2021/01/30 13:06:18;;;;;;;11.93;3.50;;;12.20;64.10;;;;;;6232845;28;20037;-80
2021/01/30 13:09:20;;;;;;;5.80;3.03;;;12.20;64.00;;;;;;6194815;28;20061;-76
2021/01/30 13:12:21;;;;;;;16.70;3.38;;;12.20;64.00;;;;;;6204232;28;20112;-79
2021/01/30 13:15:22;;;;;;;9.07;3.92;;;12.10;63.80;;;;;;6213206;28;20038;-80
2021/01/30 13:18:23;;;;;;;12.32;3.40;;;12.10;64.00;;;;;;6191822;28;20836;-77
2021/01/30 13:21:24;;;;;;;14.60;4.20;;;12.10;64.30;;;;;;6223221;28;20037;-80
2021/01/30 13:24:25;;;;;;;19.77;8.13;;;12.10;64.40;;;;;;6185546;28;20050;-79
2021/01/30 13:27:27;;;;;;;18.30;5.53;;;12.10;65.30;;;;;;6195237;28;20044;-79
2021/01/30 13:30:31;;;;;;;42.38;16.98;;;12.10;64.70;;;;;;6187187;28;20447;-75
2021/01/30 13:33:32;;;;;;;22.45;9.32;;;12.00;64.70;;;;;;6200477;28;20034;-76
2021/01/30 13:36:33;;;;;;;12.30;4.65;;;12.00;65.00;;;;;;6203621;28;20041;-76
2021/01/30 13:39:34;;;;;;;11.82;3.50;;;12.00;65.20;;;;;;6203412;28;20089;-78
2021/01/30 13:42:35;;;;;;;18.35;3.83;;;12.00;65.50;;;;;;6221375;28;20459;-76
2021/01/30 13:45:36;;;;;;;15.60;4.05;;;12.10;65.60;;;;;;6203181;28;20076;-75
2021/01/30 13:48:39;;;;;;;11.88;4.22;;;12.10;65.60;;;;;;6186050;28;20030;-76
2021/01/30 13:51:40;;;;;;;6.22;3.10;;;12.10;65.70;;;;;;6204892;28;20121;-76
2021/01/30 13:54:41;;;;;;;6.07;2.65;;;12.10;65.70;;;;;;6221308;28;20045;-76
2021/01/30 13:57:42;;;;;;;9.40;2.80;;;12.10;65.70;;;;;;6203095;28;20494;-75
2021/01/30 14:00:43;;;;;;;6.40;3.13;;;12.00;65.60;;;;;;6220890;28;20101;-76
2021/01/30 14:03:44;;;;;;;12.07;4.07;;;12.10;65.90;;;;;;6204690;28;20034;-75
2021/01/30 14:06:45;;;;;;;14.75;3.22;;;12.00;65.80;;;;;;6186954;28;20153;-77
2021/01/30 14:09:46;;;;;;;10.65;2.80;;;12.00;65.90;;;;;;6221355;28;20037;-76
2021/01/30 14:12:47;;;;;;;10.30;3.45;;;12.00;66.00;;;;;;6201645;28;20482;-77
2021/01/30 14:15:48;;;;;;;9.00;3.20;;;12.10;66.20;;;;;;6203277;28;20145;-76
2021/01/30 14:18:49;;;;;;;6.57;2.72;;;12.10;66.20;;;;;;6219419;28;20057;-77
2021/01/30 14:21:57;;;;;;;5.07;2.75;;;12.00;66.10;;;;;;6203142;28;20481;-75
2021/01/30 14:24:58;;;;;;;8.70;3.13;;;12.00;66.10;;;;;;6185166;28;20046;-81
2021/01/30 14:27:59;;;;;;;10.93;3.63;;;12.00;66.20;;;;;;6202421;28;20057;-76
2021/01/30 14:31:02;;;;;;;8.95;2.42;;;12.00;66.20;;;;;;6202895;28;20052;-77
2021/01/30 14:34:03;;;;;;;7.13;3.15;;;12.10;66.20;;;;;;6203146;28;20030;-76
2021/01/30 14:37:04;;;;;;;10.48;3.50;;;12.00;66.00;;;;;;6203014;28;20034;-76
2021/01/30 14:40:06;;;;;;;8.60;2.70;;;12.00;66.00;;;;;;6186465;28;20026;-76
2021/01/30 14:43:10;;;;;;;4.57;2.60;;;12.00;66.10;;;;;;6203734;28;20520;-77
2021/01/30 14:46:10;;;;;;;6.30;2.88;;;12.00;66.20;;;;;;6203620;28;20034;-77
2021/01/30 14:49:11;;;;;;;11.13;3.35;;;11.90;66.30;;;;;;6214016;28;20030;-77
2021/01/30 14:52:13;;;;;;;7.55;3.47;;;11.90;66.40;;;;;;6236899;28;20030;-77
2021/01/30 14:55:14;;;;;;;9.18;3.35;;;11.90;66.40;;;;;;6212670;28;20345;-77
2021/01/30 14:58:15;;;;;;;9.52;3.33;;;12.00;66.50;;;;;;6207837;28;20066;-77
2021/01/30 15:01:16;;;;;;;16.42;5.70;;;12.00;66.50;;;;;;6187046;28;20037;-78
2021/01/30 15:04:17;;;;;;;8.68;3.83;;;12.00;66.60;;;;;;6217800;28;20601;-77
2021/01/30 15:07:19;;;;;;;5.45;3.15;;;12.00;66.60;;;;;;6220368;28;20041;-78
2021/01/30 15:10:21;;;;;;;6.13;3.38;;;12.10;66.90;;;;;;6186580;28;20045;-78
2021/01/30 15:13:21;;;;;;;9.07;3.80;;;12.10;66.80;;;;;;6217150;28;20050;-77
2021/01/30 15:16:22;;;;;;;8.05;2.60;;;12.10;67.60;;;;;;6183585;28;20088;-77
2021/01/30 15:19:24;;;;;;;10.77;3.10;;;12.10;67.00;;;;;;6218731;28;20095;-78
2021/01/30 15:22:25;;;;;;;8.75;3.58;;;12.10;66.90;;;;;;6185361;28;20033;-77
2021/01/30 15:25:26;;;;;;;7.93;2.78;;;12.00;66.70;;;;;;6219630;28;20034;-77
2021/01/30 15:28:27;;;;;;;17.15;5.25;;;12.00;66.80;;;;;;6218886;28;20030;-76
2021/01/30 15:31:29;;;;;;;6.88;2.65;;;12.00;67.00;;;;;;6220290;28;20509;-77
2021/01/30 15:34:30;;;;;;;11.98;2.97;;;12.00;66.90;;;;;;6219204;28;20212;-77
2021/01/30 15:37:32;;;;;;;4.70;2.20;;;12.00;66.90;;;;;;6202589;28;20033;-80
2021/01/30 15:40:32;;;;;;;5.45;3.20;;;12.00;67.00;;;;;;6203978;28;20038;-78
2021/01/30 15:43:33;;;;;;;6.82;3.42;;;12.00;67.00;;;;;;6201302;28;20488;-76
2021/01/30 15:46:34;;;;;;;9.70;3.00;;;12.00;66.80;;;;;;6202524;28;20490;-77
2021/01/30 15:49:36;;;;;;;6.32;2.90;;;12.00;66.80;;;;;;6196777;28;20050;-76
2021/01/30 15:52:37;;;;;;;6.15;2.88;;;12.00;67.00;;;;;;6175503;28;20030;-77
2021/01/30 15:55:38;;;;;;;4.32;2.75;;;12.00;67.00;;;;;;6201970;28;20184;-77
2021/01/30 15:58:40;;;;;;;10.50;3.03;;;11.90;66.90;;;;;;6185777;28;20117;-77
2021/01/30 16:01:42;;;;;;;8.25;3.58;;;11.90;67.30;;;;;;6209686;28;20037;-76
2021/01/30 16:04:43;;;;;;;11.70;3.85;;;11.90;67.50;;;;;;6218483;28;20038;-77
2021/01/30 16:07:43;;;;;;;8.90;3.80;;;11.80;67.60;;;;;;6185365;28;20033;-77
2021/01/30 16:10:46;;;;;;;10.07;3.65;;;11.70;67.80;;;;;;6201509;28;20097;-78
2021/01/30 16:13:48;;;;;;;9.88;3.83;;;11.70;68.00;;;;;;6184048;28;20154;-77
2021/01/30 16:16:50;;;;;;;6.75;3.58;;;11.70;68.30;;;;;;6201432;28;20030;-76
2021/01/30 16:19:51;;;;;;;7.40;3.70;;;11.60;68.30;;;;;;6189862;28;20128;-76
2021/01/30 16:22:52;;;;;;;8.15;3.38;;;11.70;68.30;;;;;;6209623;28;20022;-76
2021/01/30 16:25:53;;;;;;;8.02;3.78;;;11.70;68.40;;;;;;6189979;28;20135;-78
2021/01/30 16:28:54;;;;;;;9.23;4.82;;;11.70;68.50;;;;;;6205268;28;20030;-76
2021/01/30 16:31:55;;;;;;;6.63;3.58;;;11.70;68.50;;;;;;6223539;28;20099;-77
2021/01/30 16:34:56;;;;;;;6.47;3.78;;;11.70;68.50;;;;;;6222651;28;20306;-76
2021/01/30 16:37:57;;;;;;;24.48;11.50;;;11.70;68.60;;;;;;6190513;28;20375;-76
2021/01/30 16:40:58;;;;;;;12.60;5.30;;;11.70;68.70;;;;;;6211004;28;20042;-85
2021/01/30 16:44:00;;;;;;;31.52;12.55;;;11.70;68.70;;;;;;6231855;28;20441;-85
2021/01/30 16:47:02;;;;;;;17.35;7.10;;;11.60;68.70;;;;;;6236840;28;20038;-86
2021/01/30 16:50:04;;;;;;;13.55;5.53;;;11.60;68.90;;;;;;6219980;28;20133;-87
2021/01/30 16:53:05;;;;;;;12.70;3.67;;;11.50;69.10;;;;;;6227273;28;20463;-77
2021/01/30 16:56:06;;;;;;;6.20;3.75;;;11.50;69.20;;;;;;6223611;28;20044;-77
2021/01/30 16:59:07;;;;;;;11.75;5.50;;;11.50;69.20;;;;;;6223316;28;20034;-77
2021/01/30 17:10:52;;;;;;;10.45;3.92;;;11.50;69.60;;;;;;6247239;28;20045;-77
2021/01/30 17:13:53;;;;;;;9.35;4.07;;;11.50;69.70;;;;;;6230238;28;20103;-78
2021/01/30 17:16:54;;;;;;;12.00;4.82;;;11.50;70.40;;;;;;6231009;28;20108;-77
2021/01/30 17:19:55;;;;;;;9.10;5.22;;;11.60;69.50;;;;;;6241683;28;20120;-78
2021/01/30 17:22:56;;;;;;;10.85;4.65;;;11.60;69.50;;;;;;6185542;28;20045;-78
2021/01/30 17:25:57;;;;;;;34.75;13.45;;;11.60;69.50;;;;;;6224191;28;20026;-78
2021/01/30 17:28:58;;;;;;;13.20;6.32;;;11.60;69.60;;;;;;6207802;28;20410;-77
2021/01/30 17:32:02;;;;;;;36.67;15.20;;;11.60;69.70;;;;;;6226659;28;20054;-79
2021/01/30 17:35:04;;;;;;;28.25;9.90;;;11.70;69.60;;;;;;6224893;28;20049;-78
2021/01/30 17:38:07;;;;;;;54.25;20.02;;;11.70;69.60;;;;;;6221543;28;20042;-77
2021/01/30 17:41:09;;;;;;;54.85;22.35;;;11.60;69.60;;;;;;6225951;28;20471;-78
2021/01/30 17:44:10;;;;;;;31.80;14.80;;;11.60;69.70;;;;;;6226050;28;20037;-77
2021/01/30 17:47:11;;;;;;;18.75;8.00;;;11.60;69.80;;;;;;6230772;28;20030;-79
2021/01/30 17:50:13;;;;;;;19.90;8.13;;;11.60;69.80;;;;;;6226255;28;20471;-76
2021/01/30 17:53:15;;;;;;;19.38;7.88;;;11.60;69.90;;;;;;6208167;28;20026;-77
2021/01/30 17:56:16;;;;;;;27.27;12.85;;;11.60;70.00;;;;;;6190576;28;20038;-77
2021/01/30 17:59:49;;;;;;;70.00;27.20;;;11.60;70.00;;;;;;6192640;28;20041;-78
2021/01/30 18:02:57;;;;;;;17.70;7.63;;;11.80;70.10;;;;;;6198609;28;20037;-77
2021/01/30 18:05:59;;;;;;;12.07;5.82;;;11.60;70.00;;;;;;6229981;28;20038;-78
2021/01/30 18:09:00;;;;;;;11.52;5.30;;;11.60;69.70;;;;;;6226074;28;20038;-76
2021/01/30 18:12:01;;;;;;;13.23;4.82;;;11.60;69.70;;;;;;6210323;28;20116;-76
2021/01/30 18:15:03;;;;;;;15.60;6.90;;;11.50;69.70;;;;;;6185202;28;20041;-76
2021/01/30 18:18:05;;;;;;;15.93;7.30;;;11.50;69.90;;;;;;6206255;28;20371;-77
2021/01/30 18:21:07;;;;;;;31.88;14.18;;;11.40;70.00;;;;;;6218321;28;20052;-75
2021/01/30 18:24:10;;;;;;;62.85;24.75;;;11.40;70.10;;;;;;6205238;28;20124;-75
2021/01/30 18:27:11;;;;;;;71.60;29.85;;;11.40;70.20;;;;;;6217197;28;20041;-76
2021/01/30 18:30:13;;;;;;;14.95;6.50;;;11.40;70.20;;;;;;6230752;28;20044;-76
2021/01/30 18:33:13;;;;;;;16.20;6.03;;;11.40;70.30;;;;;;6204385;28;20049;-77
2021/01/30 18:36:14;;;;;;;9.65;4.80;;;11.40;70.10;;;;;;6203961;28;20124;-77
2021/01/30 18:39:16;;;;;;;11.90;4.65;;;11.40;70.00;;;;;;6203947;28;20046;-76
2021/01/30 18:42:17;;;;;;;12.20;4.45;;;11.40;70.00;;;;;;6184426;28;20417;-77
2021/01/30 18:45:19;;;;;;;11.88;4.10;;;11.40;70.20;;;;;;6203279;28;20038;-77
2021/01/30 18:48:19;;;;;;;9.23;4.75;;;11.40;70.20;;;;;;6204122;28;20116;-77
2021/01/30 18:51:20;;;;;;;12.90;5.55;;;11.40;70.00;;;;;;6201925;28;20046;-78
2021/01/30 18:54:21;;;;;;;7.38;4.45;;;11.40;70.00;;;;;;6203427;28;20046;-77
2021/01/30 18:57:24;;;;;;;7.57;4.15;;;11.40;70.00;;;;;;6202470;28;20073;-77
2021/01/30 19:00:30;;;;;;;13.13;4.72;;;11.40;70.00;;;;;;6179541;28;20045;-78
2021/01/30 19:03:31;;;;;;;8.05;4.38;;;11.50;70.00;;;;;;6180118;28;20042;-77
2021/01/30 19:06:32;;;;;;;10.68;4.65;;;11.60;69.90;;;;;;6196488;28;20121;-77
2021/01/30 19:09:33;;;;;;;12.30;4.85;;;11.60;69.80;;;;;;6179984;28;20363;-78
2021/01/30 19:12:34;;;;;;;10.50;5.18;;;11.60;69.60;;;;;;6163623;28;20113;-77
2021/01/30 19:15:35;;;;;;;8.68;5.15;;;11.60;69.50;;;;;;6180006;28;20042;-77
2021/01/30 19:18:36;;;;;;;12.30;5.13;;;11.70;69.40;;;;;;6182016;28;20035;-77
2021/01/30 19:21:37;;;;;;;10.15;5.72;;;11.70;69.20;;;;;;6181391;28;20034;-77
2021/01/30 19:24:38;;;;;;;25.70;11.27;;;11.70;69.00;;;;;;6196245;28;20375;-76
2021/01/30 19:27:39;;;;;;;19.90;9.50;;;11.70;68.90;;;;;;6169495;28;20368;-78
2021/01/30 19:30:41;;;;;;;18.45;8.30;;;11.70;68.90;;;;;;6163845;28;20169;-78
2021/01/30 19:33:42;;;;;;;14.77;7.20;;;11.70;69.00;;;;;;6195671;28;20046;-77
2021/01/30 19:36:43;;;;;;;19.60;9.07;;;11.70;68.90;;;;;;6179558;28;20109;-78
2021/01/30 19:39:44;;;;;;;20.13;8.93;;;11.70;68.90;;;;;;6163668;28;20035;-76
2021/01/30 19:42:45;;;;;;;29.77;11.10;;;11.70;69.10;;;;;;6179676;28;20172;-76
2021/01/30 19:45:46;;;;;;;15.90;8.02;;;11.60;69.10;;;;;;6163684;28;20440;-78
2021/01/30 19:48:47;;;;;;;18.83;8.57;;;11.70;69.20;;;;;;6179847;28;20096;-77
2021/01/30 19:51:47;;;;;;;23.63;9.57;;;11.70;69.10;;;;;;6158069;28;20038;-77
2021/01/30 19:54:48;;;;;;;19.05;9.15;;;11.70;69.00;;;;;;6177206;28;20043;-76
2021/01/30 19:57:49;;;;;;;16.45;7.80;;;11.70;69.10;;;;;;6199787;28;20138;-76
2021/01/30 20:00:50;;;;;;;17.48;8.57;;;11.70;69.10;;;;;;6224520;28;20037;-77
2021/01/30 20:03:53;;;;;;;14.60;7.45;;;11.70;69.20;;;;;;6191590;28;20387;-76
2021/01/30 20:06:54;;;;;;;25.58;11.32;;;11.70;69.20;;;;;;6225261;28;20053;-76
2021/01/30 20:09:55;;;;;;;24.65;10.48;;;11.70;69.10;;;;;;6191152;28;20375;-77
2021/01/30 20:12:57;;;;;;;40.55;15.23;;;11.70;69.10;;;;;;6191646;28;20049;-76
2021/01/30 20:15:58;;;;;;;54.30;19.83;;;11.70;69.10;;;;;;6206615;28;20046;-76
2021/01/30 20:18:59;;;;;;;22.58;9.23;;;11.80;69.10;;;;;;6207306;28;20048;-77
2021/01/30 20:22:00;;;;;;;11.05;6.32;;;11.70;68.90;;;;;;6207337;28;20038;-75
2021/01/30 20:25:02;;;;;;;13.95;7.40;;;11.70;69.00;;;;;;6206577;28;20097;-76
2021/01/30 20:28:04;;;;;;;14.23;7.03;;;11.70;69.10;;;;;;6189763;28;20436;-76
2021/01/30 20:31:05;;;;;;;15.32;5.80;;;11.70;69.20;;;;;;6207373;28;20122;-74
2021/01/30 20:34:06;;;;;;;12.65;6.32;;;11.70;69.10;;;;;;6206291;28;20097;-75
2021/01/30 20:37:07;;;;;;;11.65;5.40;;;11.70;69.10;;;;;;6190671;28;20034;-75
2021/01/30 20:40:10;;;;;;;11.68;5.68;;;11.70;69.20;;;;;;6207355;28;20038;-75
2021/01/30 20:43:11;;;;;;;7.82;4.53;;;11.70;69.20;;;;;;6202375;28;20030;-77
2021/01/30 20:46:15;;;;;;;9.73;5.63;;;11.70;69.10;;;;;;6191899;28;20050;-76
2021/01/30 20:49:16;;;;;;;11.18;5.35;;;11.70;69.10;;;;;;6215722;28;20026;-75
2021/01/30 20:52:17;;;;;;;13.05;6.50;;;11.70;69.10;;;;;;6207969;28;20022;-75
2021/01/30 20:55:20;;;;;;;14.40;6.75;;;11.70;69.10;;;;;;6208566;28;20041;-75
2021/01/30 20:58:21;;;;;;;10.63;5.82;;;11.70;69.10;;;;;;6208790;28;20102;-75
2021/01/30 21:01:23;;;;;;;11.48;4.78;;;11.70;69.10;;;;;;6190709;28;20038;-74
2021/01/30 21:04:24;;;;;;;8.68;4.78;;;11.70;69.10;;;;;;6207817;28;20037;-77
2021/01/30 21:07:25;;;;;;;13.60;6.07;;;11.70;69.10;;;;;;6208163;28;20113;-77
2021/01/30 21:10:27;;;;;;;11.25;5.93;;;11.60;69.00;;;;;;6207106;28;20091;-76
2021/01/30 21:13:28;;;;;;;12.75;6.35;;;11.60;69.20;;;;;;6207961;28;20038;-75
2021/01/30 21:16:30;;;;;;;13.70;6.63;;;11.60;69.40;;;;;;6191865;28;20111;-78
2021/01/30 21:19:31;;;;;;;12.02;5.90;;;11.50;69.50;;;;;;6207951;28;20455;-77
2021/01/30 21:22:33;;;;;;;13.25;5.53;;;11.50;69.50;;;;;;6207210;28;20040;-76
2021/01/30 21:25:35;;;;;;;11.82;6.22;;;11.50;69.70;;;;;;6207852;28;20045;-76
2021/01/30 21:28:36;;;;;;;19.90;8.98;;;11.50;69.80;;;;;;6207045;28;20515;-77
2021/01/30 21:31:39;;;;;;;17.65;7.70;;;11.50;69.70;;;;;;6190528;28;20034;-77
2021/01/30 21:34:40;;;;;;;13.18;6.65;;;11.60;69.70;;;;;;6207829;28;20045;-77
2021/01/30 21:37:41;;;;;;;12.20;6.22;;;11.60;69.50;;;;;;6207209;28;20113;-76
2021/01/30 21:40:42;;;;;;;12.48;6.70;;;11.60;69.40;;;;;;6190813;28;20119;-77
2021/01/30 21:43:43;;;;;;;12.32;6.35;;;11.60;69.40;;;;;;6224223;28;20455;-77
2021/01/30 21:46:47;;;;;;;15.02;6.55;;;11.70;69.40;;;;;;6206063;28;20450;-75
2021/01/30 21:49:48;;;;;;;13.70;6.72;;;11.70;69.40;;;;;;6192356;28;20444;-76
2021/01/30 21:52:49;;;;;;;15.73;6.95;;;11.70;69.40;;;;;;6192216;28;20046;-76
2021/01/30 21:55:50;;;;;;;13.52;7.70;;;11.70;69.50;;;;;;6208816;28;20132;-77
2021/01/30 21:58:50;;;;;;;19.92;8.02;;;11.70;69.40;;;;;;6208981;28;20121;-77
2021/01/30 22:01:51;;;;;;;14.57;7.43;;;11.70;69.40;;;;;;6210630;28;20579;-83
2021/01/30 22:04:52;;;;;;;24.48;10.57;;;11.70;69.50;;;;;;6209432;28;20037;-84
2021/01/30 22:07:54;;;;;;;16.48;9.02;;;11.60;69.60;;;;;;6242120;28;20049;-83
2021/01/30 22:10:55;;;;;;;29.83;11.90;;;11.60;69.70;;;;;;6207943;28;20045;-83
2021/01/30 22:13:56;;;;;;;12.73;5.93;;;11.50;69.80;;;;;;6216591;28;20045;-83
2021/01/30 22:16:57;;;;;;;10.82;5.20;;;11.60;70.00;;;;;;6234015;28;20101;-83
2021/01/30 22:19:58;;;;;;;11.30;5.75;;;11.60;69.90;;;;;;6216964;28;20084;-83
2021/01/30 22:22:59;;;;;;;12.00;5.22;;;11.60;69.90;;;;;;6206598;28;20038;-77
2021/01/30 22:26:00;;;;;;;11.95;5.50;;;11.60;69.80;;;;;;6226230;28;20383;-77
2021/01/30 22:29:02;;;;;;;12.38;4.63;;;11.70;69.90;;;;;;6224608;28;20042;-78
2021/01/30 22:32:03;;;;;;;6.90;4.00;;;11.70;69.70;;;;;;6207369;28;20379;-77
2021/01/30 22:35:07;;;;;;;10.00;4.32;;;11.60;69.60;;;;;;6197749;28;20042;-77
2021/01/30 22:38:08;;;;;;;12.25;6.40;;;11.60;69.60;;;;;;6190736;28;20033;-79
2021/01/30 22:41:09;;;;;;;11.00;6.07;;;11.60;69.70;;;;;;6206700;28;20113;-77
2021/01/30 22:44:10;;;;;;;13.45;6.80;;;11.60;69.70;;;;;;6206819;28;20471;-78
2021/01/30 22:47:11;;;;;;;14.30;6.32;;;11.60;69.90;;;;;;6224854;28;20206;-78
2021/01/30 22:50:13;;;;;;;13.60;6.70;;;11.60;70.00;;;;;;6226494;28;20042;-77
2021/01/30 22:53:14;;;;;;;18.30;9.02;;;11.60;70.00;;;;;;6184333;28;20061;-77
2021/01/30 22:56:15;;;;;;;15.88;8.13;;;11.70;70.00;;;;;;6207811;28;20064;-77
2021/01/30 22:59:16;;;;;;;18.70;7.55;;;11.60;70.00;;;;;;6207318;28;20037;-76
2021/01/30 23:02:22;;;;;;;17.00;8.63;;;11.60;70.00;;;;;;6192997;28;20050;-78
2021/01/30 23:05:23;;;;;;;20.58;8.57;;;11.60;70.00;;;;;;6210465;28;20070;-77
2021/01/30 23:08:26;;;;;;;20.20;9.95;;;11.50;69.90;;;;;;6190477;28;20048;-77
2021/01/30 23:11:27;;;;;;;23.63;10.40;;;11.60;70.20;;;;;;6207110;28;20054;-77
2021/01/30 23:14:27;;;;;;;20.38;8.63;;;11.60;70.30;;;;;;6207246;28;20100;-77
2021/01/30 23:17:28;;;;;;;19.30;9.23;;;11.60;70.30;;;;;;6206450;28;20479;-77
2021/01/30 23:20:31;;;;;;;18.10;9.07;;;11.60;70.30;;;;;;6206890;28;20034;-77
2021/01/30 23:23:32;;;;;;;17.92;9.50;;;11.60;71.10;;;;;;6206870;28;20037;-77
2021/01/30 23:26:33;;;;;;;20.95;10.85;;;11.60;71.10;;;;;;6210101;28;20106;-77
2021/01/30 23:29:35;;;;;;;19.90;9.32;;;11.60;70.20;;;;;;6195214;28;20038;-77
2021/01/30 23:32:39;;;;;;;22.25;10.68;;;11.60;70.00;;;;;;6211615;28;20033;-77
2021/01/30 23:35:40;;;;;;;19.58;9.70;;;11.60;70.00;;;;;;6228787;28;20037;-77
2021/01/30 23:38:41;;;;;;;18.85;9.80;;;11.60;70.10;;;;;;6228403;28;20049;-77
2021/01/30 23:41:42;;;;;;;22.00;10.70;;;11.60;70.20;;;;;;6228735;28;20034;-78
2021/01/30 23:44:43;;;;;;;21.52;10.57;;;11.60;70.30;;;;;;6211573;28;20030;-77
2021/01/30 23:47:44;;;;;;;22.42;10.93;;;11.50;70.20;;;;;;6228750;28;20037;-78
2021/01/30 23:50:47;;;;;;;22.40;9.77;;;11.50;70.30;;;;;;6225271;28;20065;-77
2021/01/30 23:53:49;;;;;;;20.88;9.93;;;11.50;70.30;;;;;;6228277;28;20034;-77
2021/01/30 23:56:50;;;;;;;18.60;10.38;;;11.40;70.20;;;;;;6210529;28;20037;-75
2021/01/30 23:59:51;;;;;;;21.42;10.27;;;11.40;70.40;;;;;;6228003;28;20046;-75
